Time;durP1;ratioP1;P1;durP2;ratioP2;P2;SDS_P1;SDS_P2;PMS_P1;PMS_P2;Temp;Humidity;BMP_temperature;BMP_pressure;BME280_temperature;BME280_humidity;BME280_pressure;Samples;Min_cycle;Max_cycle;Signal;HPM_P1;HPM_P2
2023/07/27 00:01:52;;;;;;;5.57;4.30;;;;;;;14.23;70.52;96201.59;5091717;28;20256;-68
2023/07/27 00:04:18;;;;;;;7.67;4.90;;;;;;;14.25;70.66;96202.34;5091541;28;20666;-68
2023/07/27 00:06:43;;;;;;;6.07;4.20;;;;;;;14.21;70.77;96203.47;5091639;28;20173;-70
2023/07/27 00:09:09;;;;;;;4.30;3.90;;;;;;;14.29;70.06;96209.13;5091354;28;20186;-68
2023/07/27 00:11:34;;;;;;;4.37;3.97;;;;;;;14.28;70.18;96202.16;5091519;28;20169;-69
2023/07/27 00:13:59;;;;;;;4.63;3.70;;;;;;;14.26;70.27;96200.53;5091716;28;20269;-68
2023/07/27 00:16:25;;;;;;;6.67;4.20;;;;;;;14.26;70.14;96200.53;5091733;28;20802;-69
2023/07/27 00:18:50;;;;;;;4.53;4.00;;;;;;;14.19;70.32;96195.63;5091153;28;20185;-69
2023/07/27 00:21:15;;;;;;;4.07;3.67;;;;;;;14.24;70.35;96199.78;5091342;28;20213;-69
2023/07/27 00:23:41;;;;;;;7.73;4.20;;;;;;;14.17;70.38;96192.28;5091174;28;20181;-70
2023/07/27 00:26:06;;;;;;;6.33;4.80;;;;;;;14.11;70.66;96192.63;5091157;28;20203;-71
2023/07/27 00:28:32;;;;;;;4.10;3.70;;;;;;;14.00;70.67;96189.78;5091195;28;20169;-70
2023/07/27 00:30:57;;;;;;;7.43;4.07;;;;;;;14.11;70.36;96186.50;5076195;28;20170;-70
2023/07/27 00:33:22;;;;;;;4.93;4.43;;;;;;;14.08;70.58;96192.81;5071166;28;20173;-70
2023/07/27 00:35:58;;;;;;;4.60;4.20;;;;;;;14.03;70.50;96194.91;5070858;28;20647;-69
2023/07/27 00:38:23;;;;;;;4.60;4.20;;;;;;;13.92;70.93;96187.63;5070827;28;20188;-70
2023/07/27 00:40:49;;;;;;;5.10;3.60;;;;;;;13.98;70.92;96194.31;5070396;28;20452;-69
2023/07/27 00:43:14;;;;;;;6.60;4.33;;;;;;;14.03;71.07;96194.91;5070630;28;20544;-73
2023/07/27 00:45:40;;;;;;;4.30;3.90;;;;;;;14.03;70.85;96192.28;5070514;28;20202;-67
2023/07/27 00:48:08;;;;;;;9.13;4.40;;;;;;;14.03;70.83;96194.03;5070778;28;20166;-69
2023/07/27 00:50:35;;;;;;;6.27;4.80;;;;;;;14.15;70.50;96198.59;5070047;28;20177;-69
2023/07/27 00:53:06;;;;;;;5.10;4.60;;;;;;;14.06;71.11;96196.50;5070434;28;20794;-69
2023/07/27 00:55:32;;;;;;;5.60;5.10;;;;;;;13.98;71.17;96189.03;5070424;28;20634;-70
2023/07/27 00:57:58;;;;;;;4.97;4.47;;;;;;;14.01;70.60;96190.63;5070288;28;20400;-70
2023/07/27 01:00:25;;;;;;;6.90;5.07;;;;;;;13.99;70.91;96182.84;5069988;28;20582;-70
2023/07/27 01:02:51;;;;;;;8.57;4.50;;;;;;;13.91;70.97;96177.16;5070075;28;20180;-70
2023/07/27 01:05:16;;;;;;;27.47;6.70;;;;;;;13.92;71.11;96182.34;5070020;28;20436;-70
2023/07/27 01:07:42;;;;;;;5.73;4.47;;;;;;;13.83;71.11;96182.91;5069962;28;20174;-69
2023/07/27 01:10:09;;;;;;;6.80;4.57;;;;;;;13.99;70.86;96182.84;5069641;28;20166;-70
2023/07/27 01:12:42;;;;;;;6.80;4.00;;;;;;;13.97;70.63;96179.44;5070107;28;20257;-70
2023/07/27 01:15:11;;;;;;;6.10;4.43;;;;;;;13.96;70.53;96175.97;5069976;28;20519;-69
2023/07/27 01:17:47;;;;;;;5.73;4.10;;;;;;;13.96;70.36;96169.81;5070030;28;20405;-69
2023/07/27 01:20:46;;;;;;;6.60;4.83;;;;;;;14.02;70.23;96174.72;5069572;28;20459;-69
2023/07/27 01:23:33;;;;;;;6.20;5.60;;;;;;;13.92;70.15;96161.25;5070005;28;20413;-69
2023/07/27 01:26:17;;;;;;;7.73;5.70;;;;;;;13.97;70.41;96153.91;5069962;28;21041;-69
2023/07/27 01:29:03;;;;;;;7.90;4.27;;;;;;;13.94;70.12;96153.25;5069523;28;20913;-69
2023/07/27 01:31:41;;;;;;;6.83;4.50;;;;;;;13.97;69.83;96151.25;5088567;28;20402;-69
2023/07/27 01:34:11;;;;;;;5.87;4.90;;;;;;;14.01;69.65;96146.66;5092999;28;20403;-69
2023/07/27 01:36:40;;;;;;;5.90;3.77;;;;;;;14.07;69.75;96148.06;5095360;28;20403;-69
2023/07/27 01:39:08;;;;;;;4.43;3.73;;;;;;;14.03;69.99;96147.41;5089685;28;20451;-70
2023/07/27 01:41:37;;;;;;;9.23;4.10;;;;;;;14.09;69.48;96147.03;5089631;28;20774;-69
2023/07/27 01:44:04;;;;;;;7.23;4.20;;;;;;;13.96;70.20;96140.78;5089949;28;20408;-70
2023/07/27 01:46:30;;;;;;;5.60;5.00;;;;;;;13.96;69.74;96135.50;5089884;28;20485;-69
2023/07/27 01:48:57;;;;;;;4.70;4.30;;;;;;;13.95;69.55;96133.84;5089348;28;20468;-69
2023/07/27 01:51:24;;;;;;;8.03;4.30;;;;;;;13.87;70.18;96131.66;5089911;28;20880;-70
2023/07/27 01:53:50;;;;;;;6.20;5.00;;;;;;;13.84;70.62;96134.50;5091868;28;20412;-70
2023/07/27 01:56:16;;;;;;;5.00;4.50;;;;;;;13.76;70.75;96134.09;5089492;28;20466;-68
2023/07/27 01:58:43;;;;;;;6.30;5.27;;;;;;;13.77;71.09;96127.88;5089134;28;20496;-70
2023/07/27 02:01:09;;;;;;;5.33;4.40;;;;;;;13.81;70.93;96125.91;5089225;28;20540;-70
2023/07/27 02:03:36;;;;;;;5.07;4.57;;;;;;;13.68;71.35;96129.31;5089479;28;20905;-69
2023/07/27 02:06:01;;;;;;;6.40;3.93;;;;;;;13.68;71.14;96123.19;5089042;28;20431;-69
2023/07/27 02:08:27;;;;;;;6.90;4.60;;;;;;;13.70;71.19;96119.53;5089014;28;20422;-69
2023/07/27 02:10:58;;;;;;;5.97;5.30;;;;;;;13.72;70.74;96120.28;5088837;28;20177;-70
2023/07/27 02:13:59;;;;;;;5.20;4.70;;;;;;;13.72;71.06;96124.69;5089293;28;20166;-70
2023/07/27 02:16:44;;;;;;;9.23;4.77;;;;;;;13.63;70.87;96118.19;5089212;28;20431;-69
2023/07/27 02:19:12;;;;;;;7.83;4.50;;;;;;;13.64;71.10;96113.75;5089727;28;20488;-69
2023/07/27 02:21:38;;;;;;;9.03;5.07;;;;;;;13.64;70.96;96114.59;5088419;28;20482;-69
2023/07/27 02:24:04;;;;;;;6.80;4.40;;;;;;;13.63;70.90;96107.66;5089071;28;20408;-69
2023/07/27 02:26:30;;;;;;;7.23;4.70;;;;;;;13.69;70.74;96106.41;5088775;28;20412;-69
2023/07/27 02:28:56;;;;;;;5.90;4.67;;;;;;;13.74;70.22;96101.72;5088582;28;20411;-67
2023/07/27 02:31:23;;;;;;;7.40;5.20;;;;;;;13.68;70.18;96110.00;5070908;28;20420;-70
2023/07/27 02:33:48;;;;;;;9.10;4.77;;;;;;;13.67;70.20;96101.22;5068502;28;20300;-70
2023/07/27 02:36:14;;;;;;;7.80;4.60;;;;;;;13.58;70.99;96101.78;5068500;28;20500;-69
2023/07/27 02:38:39;;;;;;;5.43;4.40;;;;;;;13.53;70.83;96095.94;5068380;28;20166;-70
2023/07/27 02:41:04;;;;;;;5.50;4.50;;;;;;;13.50;71.09;96096.13;5068083;28;20262;-68
2023/07/27 02:43:30;;;;;;;5.17;4.70;;;;;;;13.30;71.53;96092.06;5068038;28;20180;-69
2023/07/27 02:45:59;;;;;;;7.00;4.73;;;;;;;13.35;71.80;96095.28;5068150;28;20285;-70
2023/07/27 02:48:26;;;;;;;4.33;3.93;;;;;;;13.23;72.40;96090.69;5068213;28;20169;-69
2023/07/27 02:50:51;;;;;;;4.60;4.20;;;;;;;13.31;71.75;96091.97;5067891;28;20416;-69
2023/07/27 02:53:17;;;;;;;5.83;5.13;;;;;;;13.40;71.20;96089.72;5068267;28;20416;-70
2023/07/27 02:55:42;;;;;;;5.40;4.50;;;;;;;13.37;71.90;96090.78;5068349;28;20238;-69
2023/07/27 02:58:08;;;;;;;8.17;5.10;;;;;;;13.27;72.00;96085.19;5068156;28;20169;-70
2023/07/27 03:00:33;;;;;;;6.47;4.17;;;;;;;13.37;71.62;96087.25;5067848;28;20595;-69
2023/07/27 03:03:00;;;;;;;5.73;3.87;;;;;;;13.38;71.14;96091.63;5068121;28;20203;-70
2023/07/27 03:05:26;;;;;;;6.50;5.67;;;;;;;13.34;71.43;96090.94;5067800;28;20727;-69
2023/07/27 03:07:52;;;;;;;6.20;4.63;;;;;;;13.33;71.81;96091.88;5068079;28;20525;-70
2023/07/27 03:10:17;;;;;;;8.87;4.90;;;;;;;13.32;71.98;96091.03;5067610;28;20542;-69
2023/07/27 03:12:42;;;;;;;15.87;5.80;;;;;;;13.33;71.76;96095.38;5067979;28;20173;-69
2023/07/27 03:15:09;;;;;;;5.63;4.27;;;;;;;13.29;71.70;96091.22;5067707;28;20600;-69
2023/07/27 03:17:34;;;;;;;10.43;5.10;;;;;;;13.34;71.54;96081.22;5068022;28;20551;-68
2023/07/27 03:20:00;;;;;;;15.43;4.67;;;;;;;13.40;70.98;96080.03;5067646;28;20471;-70
2023/07/27 03:22:25;;;;;;;12.23;4.70;;;;;;;13.27;71.60;96079.91;5068127;28;20866;-69
2023/07/27 03:24:51;;;;;;;14.67;5.10;;;;;;;13.19;71.85;96065.47;5067704;28;20202;-69
2023/07/27 03:27:17;;;;;;;6.43;4.40;;;;;;;13.29;71.92;96074.56;5067765;28;20178;-70
2023/07/27 03:29:42;;;;;;;6.70;4.13;;;;;;;13.30;71.42;96071.84;5071454;28;20623;-69
2023/07/27 03:32:07;;;;;;;10.23;4.57;;;;;;;13.29;71.86;96072.75;5087912;28;20416;-70
2023/07/27 03:34:33;;;;;;;5.53;4.70;;;;;;;13.32;71.23;96077.00;5087797;28;20224;-70
2023/07/27 03:36:58;;;;;;;9.07;4.30;;;;;;;13.19;71.71;96074.22;5088232;28;20200;-69
2023/07/27 03:39:23;;;;;;;22.67;6.37;;;;;;;13.22;71.92;96065.28;5087693;28;20678;-68
2023/07/27 03:41:49;;;;;;;24.77;8.37;;;;;;;13.31;71.43;96065.63;5088004;28;20574;-70
2023/07/27 03:44:14;;;;;;;13.50;9.30;;;;;;;13.31;71.49;96065.63;5088232;28;20203;-69
2023/07/27 03:46:40;;;;;;;7.07;3.57;;;;;;;14.30;74.25;96068.28;5087751;28;20642;-69
2023/07/27 03:49:05;;;;;;;6.43;3.07;;;;;;;15.37;69.28;96062.16;5087326;28;20161;-68
2023/07/27 03:51:30;;;;;;;7.00;2.90;;;;;;;15.95;66.35;96059.94;5087610;28;20235;-69
2023/07/27 03:53:56;;;;;;;8.43;4.80;;;;;;;15.79;62.72;96060.19;5098645;28;20209;-69
2023/07/27 03:56:21;;;;;;;6.00;4.50;;;;;;;14.51;66.92;96063.41;5087832;28;20169;-70
2023/07/27 03:58:46;;;;;;;10.00;4.13;;;;;;;14.05;68.14;96066.34;5087917;28;20288;-70
2023/07/27 04:01:12;;;;;;;12.83;4.40;;;;;;;13.71;69.48;96067.63;5088060;28;20223;-70
2023/07/27 04:03:37;;;;;;;21.00;5.47;;;;;;;13.69;69.34;96069.50;5088001;28;20169;-69
2023/07/27 04:06:03;;;;;;;5.30;4.50;;;;;;;13.55;70.44;96070.34;5088216;28;20189;-69
2023/07/27 04:08:28;;;;;;;8.23;4.80;;;;;;;13.62;70.11;96066.38;5088493;28;20174;-67
2023/07/27 04:10:53;;;;;;;6.30;5.07;;;;;;;13.61;70.36;96069.13;5089925;28;20200;-70
2023/07/27 04:13:19;;;;;;;6.23;5.60;;;;;;;13.59;70.55;96063.94;5090781;28;20647;-70
2023/07/27 04:15:44;;;;;;;5.20;4.70;;;;;;;13.57;69.97;96065.81;5087689;28;20202;-71
2023/07/27 04:18:09;;;;;;;5.23;4.40;;;;;;;13.61;70.50;96067.34;5087330;28;20173;-69
2023/07/27 04:20:35;;;;;;;10.27;4.97;;;;;;;13.66;70.34;96062.63;5087106;28;20197;-66
2023/07/27 04:23:00;;;;;;;13.13;5.30;;;;;;;13.60;70.59;96068.25;5083546;28;20494;-70
2023/07/27 04:25:26;;;;;;;26.03;6.43;;;;;;;13.54;71.04;96066.03;5077512;28;20201;-68
2023/07/27 04:27:51;;;;;;;11.20;5.77;;;;;;;13.50;70.39;96060.06;5086206;28;20226;-69
2023/07/27 04:30:18;;;;;;;16.70;5.97;;;;;;;13.60;70.36;96070.91;5078044;28;20256;-67
2023/07/27 04:32:43;;;;;;;6.60;5.03;;;;;;;13.59;70.78;96063.09;5067169;28;20250;-67
2023/07/27 04:35:08;;;;;;;7.60;5.43;;;;;;;13.65;70.48;96058.28;5067059;28;20515;-68
2023/07/27 04:37:34;;;;;;;8.10;6.33;;;;;;;13.58;70.66;96059.59;5065150;28;20186;-68
2023/07/27 04:39:59;;;;;;;6.87;5.70;;;;;;;13.62;70.36;96053.19;5064954;28;20237;-70
2023/07/27 04:42:25;;;;;;;6.77;4.83;;;;;;;13.69;70.41;96048.41;5064839;28;20178;-69
2023/07/27 04:44:50;;;;;;;8.83;5.50;;;;;;;13.66;70.18;96052.06;5068086;28;20190;-70
2023/07/27 04:47:15;;;;;;;9.13;5.93;;;;;;;13.65;70.48;96050.38;5069459;28;20202;-67
2023/07/27 04:49:41;;;;;;;7.97;5.33;;;;;;;13.73;70.33;96050.75;5067915;28;20174;-69
2023/07/27 04:52:06;;;;;;;8.03;5.30;;;;;;;13.70;70.11;96050.97;5068194;28;20531;-71
2023/07/27 04:54:32;;;;;;;9.70;5.53;;;;;;;13.81;70.05;96052.06;5066808;28;20209;-69
2023/07/27 04:56:57;;;;;;;9.30;5.60;;;;;;;13.71;70.44;96046.53;5067775;28;20581;-70
2023/07/27 04:59:22;;;;;;;9.23;6.13;;;;;;;13.90;70.15;96051.50;5067829;28;20261;-68
2023/07/27 05:01:48;;;;;;;11.70;5.30;;;;;;;13.76;70.62;96047.91;5067691;28;20174;-70
2023/07/27 05:04:13;;;;;;;18.00;6.70;;;;;;;13.83;70.48;96035.19;5070677;28;20576;-70
2023/07/27 05:06:39;;;;;;;12.27;6.87;;;;;;;13.81;70.14;96038.88;5068362;28;20185;-74
2023/07/27 05:09:05;;;;;;;15.10;7.00;;;;;;;13.92;69.87;96034.63;5074394;28;20622;-74
2023/07/27 05:11:30;;;;;;;15.43;8.30;;;;;;;14.01;69.93;96032.34;5079884;28;20426;-68
2023/07/27 05:13:56;;;;;;;10.60;5.70;;;;;;;14.01;69.75;96030.56;5078686;28;20192;-69
2023/07/27 05:16:21;;;;;;;8.83;5.97;;;;;;;14.04;69.63;96030.38;5079305;28;20802;-69
2023/07/27 05:18:46;;;;;;;11.43;6.57;;;;;;;14.09;68.98;96028.28;5078840;28;20192;-73
2023/07/27 05:21:12;;;;;;;12.00;6.13;;;;;;;14.11;69.06;96021.13;5070254;28;20689;-71
2023/07/27 05:23:37;;;;;;;11.50;6.23;;;;;;;14.10;69.33;96023.84;5070709;28;20215;-72
2023/07/27 05:26:03;;;;;;;9.07;6.50;;;;;;;14.14;69.02;96018.28;5075757;28;20720;-69
2023/07/27 05:28:28;;;;;;;8.20;5.00;;;;;;;14.22;68.59;96024.84;5079220;28;20170;-68
2023/07/27 05:30:54;;;;;;;17.70;6.77;;;;;;;14.13;69.14;96021.88;5067849;28;20162;-70
2023/07/27 05:33:19;;;;;;;9.67;6.20;;;;;;;14.18;69.07;96018.94;5086392;28;20169;-74
2023/07/27 05:35:48;;;;;;;7.80;5.57;;;;;;;14.25;68.91;96014.94;5085888;28;20602;-70
2023/07/27 05:38:15;;;;;;;6.43;5.83;;;;;;;14.32;68.48;96013.59;5086999;28;20268;-72
2023/07/27 05:40:40;;;;;;;18.63;6.50;;;;;;;14.33;68.62;96012.66;5086583;28;20447;-71
2023/07/27 05:43:05;;;;;;;12.60;5.77;;;;;;;14.38;68.36;96020.28;5086668;28;20410;-70
2023/07/27 05:45:31;;;;;;;9.00;6.40;;;;;;;14.40;68.48;96019.22;5086994;28;20636;-69
2023/07/27 05:47:56;;;;;;;11.30;6.60;;;;;;;14.42;68.56;96021.78;5087149;28;20170;-71
2023/07/27 05:50:22;;;;;;;8.60;6.40;;;;;;;14.47;68.17;96029.41;5087299;28;20162;-69
2023/07/27 05:52:47;;;;;;;10.70;5.63;;;;;;;14.52;67.98;96022.84;5088638;28;20171;-68
2023/07/27 05:55:13;;;;;;;10.23;5.57;;;;;;;14.60;67.91;96014.47;5087327;28;20200;-68
2023/07/27 05:57:41;;;;;;;11.20;6.87;;;;;;;14.77;67.22;96006.28;5087378;28;20176;-70
2023/07/27 06:00:07;;;;;;;11.37;5.80;;;;;;;14.85;66.81;96008.38;5086881;28;20429;-68
2023/07/27 06:02:32;;;;;;;24.30;6.50;;;;;;;14.93;66.78;96007.88;5086640;28;20435;-71
2023/07/27 06:04:57;;;;;;;9.17;5.60;;;;;;;15.01;66.77;96016.13;5086146;28;20424;-70
2023/07/27 06:07:23;;;;;;;11.47;6.10;;;;;;;14.92;66.61;96017.59;5086100;28;20246;-73
2023/07/27 06:09:48;;;;;;;8.13;5.50;;;;;;;15.18;66.03;96020.28;5085749;28;20161;-74
2023/07/27 06:12:13;;;;;;;14.77;6.70;;;;;;;15.40;65.28;96015.22;5085738;28;20169;-68
2023/07/27 06:14:39;;;;;;;7.83;4.93;;;;;;;15.54;64.69;96011.59;5086156;28;20682;-70
2023/07/27 06:17:05;;;;;;;8.10;5.40;;;;;;;15.62;63.72;96011.06;5086554;28;20220;-68
2023/07/27 06:19:30;;;;;;;10.00;5.93;;;;;;;15.58;63.87;96020.16;5085501;28;20192;-68
2023/07/27 06:21:56;;;;;;;9.20;5.80;;;;;;;15.58;63.93;96018.34;5087332;28;20418;-70
2023/07/27 06:24:21;;;;;;;10.27;6.10;;;;;;;15.52;64.56;96018.81;5088377;28;20197;-71
2023/07/27 06:26:46;;;;;;;8.53;6.10;;;;;;;15.56;64.09;96014.13;5086136;28;20217;-72
2023/07/27 06:29:12;;;;;;;13.47;5.67;;;;;;;15.36;64.54;96016.38;5088270;28;20177;-70
2023/07/27 06:31:37;;;;;;;15.10;6.50;;;;;;;15.36;64.76;96012.88;5068631;28;20162;-68
2023/07/27 06:34:02;;;;;;;8.60;5.60;;;;;;;15.30;65.10;96014.13;5068133;28;20178;-71
2023/07/27 06:36:28;;;;;;;10.77;6.10;;;;;;;15.27;65.27;96011.72;5068101;28;20627;-69
2023/07/27 06:38:53;;;;;;;10.60;5.90;;;;;;;15.23;65.36;96018.16;5068099;28;20657;-69
2023/07/27 06:41:24;;;;;;;16.73;6.07;;;;;;;15.27;65.30;96016.16;5067970;28;20734;-68
2023/07/27 06:43:54;;;;;;;7.97;6.00;;;;;;;15.37;64.85;96011.94;5068025;28;20166;-68
2023/07/27 06:46:20;;;;;;;5.87;5.27;;;;;;;15.14;65.22;96016.13;5068041;28;20415;-68
2023/07/27 06:48:46;;;;;;;4.77;4.23;;;;;;;15.03;65.61;96011.59;5067890;28;20434;-70
2023/07/27 06:51:13;;;;;;;4.67;4.03;;;;;;;15.11;65.36;96014.56;5067827;28;20412;-73
2023/07/27 06:53:38;;;;;;;12.60;5.80;;;;;;;15.26;64.78;96007.41;5067932;28;20791;-69
2023/07/27 06:56:04;;;;;;;5.20;4.10;;;;;;;15.46;64.58;96011.28;5067369;28;20427;-67
2023/07/27 06:58:30;;;;;;;5.83;4.60;;;;;;;15.53;64.23;96017.84;5067739;28;20170;-69
2023/07/27 07:00:55;;;;;;;5.00;4.50;;;;;;;15.58;64.33;96015.72;5067880;28;20190;-68
2023/07/27 07:03:21;;;;;;;7.03;3.70;;;;;;;15.58;64.44;96015.72;5067269;28;20725;-70
2023/07/27 07:05:47;;;;;;;7.67;3.77;;;;;;;15.59;64.38;96013.91;5067482;28;20321;-70
2023/07/27 07:08:12;;;;;;;4.60;4.17;;;;;;;15.68;64.34;96010.63;5067506;28;20178;-70
2023/07/27 07:10:37;;;;;;;13.30;5.13;;;;;;;15.51;64.53;96009.16;5067320;28;20405;-69
2023/07/27 07:13:03;;;;;;;8.70;4.70;;;;;;;15.58;64.17;96014.88;5067686;28;20245;-69
2023/07/27 07:15:28;;;;;;;8.67;4.53;;;;;;;15.64;64.30;96006.53;5067624;28;20676;-69
2023/07/27 07:17:54;;;;;;;11.77;5.47;;;;;;;15.60;64.53;95999.75;5067382;28;20170;-69
2023/07/27 07:20:19;;;;;;;9.63;4.73;;;;;;;15.62;64.11;95995.19;5067071;28;20198;-70
2023/07/27 07:22:45;;;;;;;4.23;3.80;;;;;;;15.71;63.48;95994.59;5067305;28;20646;-70
2023/07/27 07:25:10;;;;;;;10.63;4.63;;;;;;;15.92;62.92;95983.41;5067341;28;20209;-69
2023/07/27 07:27:36;;;;;;;11.90;4.77;;;;;;;15.94;61.82;95982.34;5067170;28;20170;-68
2023/07/27 07:30:04;;;;;;;5.90;3.53;;;;;;;16.12;61.41;95984.63;5073558;28;20389;-70
2023/07/27 07:32:31;;;;;;;11.37;4.67;;;;;;;16.33;60.70;95976.94;5087988;28;20165;-69
2023/07/27 07:34:57;;;;;;;7.63;3.73;;;;;;;16.76;59.50;95986.97;5087439;28;20473;-69
2023/07/27 07:37:22;;;;;;;6.60;3.03;;;;;;;16.78;59.59;95983.25;5087568;28;20411;-70
2023/07/27 07:39:47;;;;;;;5.90;4.00;;;;;;;16.74;59.29;95976.47;5087236;28;20199;-69
2023/07/27 07:42:13;;;;;;;3.30;3.00;;;;;;;16.55;60.18;95974.34;5087318;28;20220;-69
2023/07/27 07:44:38;;;;;;;5.10;3.60;;;;;;;16.42;60.73;95982.38;5087438;28;20193;-70
2023/07/27 07:47:04;;;;;;;4.30;3.00;;;;;;;16.43;60.67;95980.56;5087780;28;20272;-69
2023/07/27 07:49:29;;;;;;;5.40;3.10;;;;;;;16.41;61.01;95974.53;5087274;28;20245;-69
2023/07/27 07:51:54;;;;;;;7.03;3.33;;;;;;;16.40;61.28;95973.69;5087850;28;20279;-70
2023/07/27 07:54:20;;;;;;;3.27;2.97;;;;;;;16.26;61.30;95974.72;5087503;28;20302;-70
2023/07/27 07:56:47;;;;;;;5.60;3.57;;;;;;;16.19;62.16;95973.47;5087663;28;20166;-68
2023/07/27 07:59:13;;;;;;;9.30;3.77;;;;;;;16.16;62.75;95973.72;5087568;28;20665;-69
2023/07/27 08:01:38;;;;;;;6.83;3.40;;;;;;;16.19;62.92;95968.19;5087580;28;20469;-69
2023/07/27 08:04:04;;;;;;;4.57;2.90;;;;;;;16.16;63.12;95971.06;5086870;28;20165;-70
2023/07/27 08:06:30;;;;;;;4.03;3.60;;;;;;;16.15;62.65;95974.66;5087188;28;20185;-68
2023/07/27 08:08:55;;;;;;;14.77;3.87;;;;;;;16.15;63.20;95965.88;5085198;28;20508;-68
2023/07/27 08:11:21;;;;;;;6.87;3.60;;;;;;;16.17;63.24;95966.59;5086902;28;20197;-69
2023/07/27 08:13:46;;;;;;;5.97;3.80;;;;;;;16.21;63.08;95966.28;5087392;28;20176;-69
2023/07/27 08:16:12;;;;;;;7.27;3.50;;;;;;;16.28;63.04;95970.16;5087283;28;20219;-71
2023/07/27 08:18:37;;;;;;;6.17;3.80;;;;;;;16.36;62.66;95960.78;5088105;28;20264;-70
2023/07/27 08:21:05;;;;;;;7.33;4.07;;;;;;;16.44;62.74;95958.41;5090694;28;20211;-70
2023/07/27 08:23:31;;;;;;;18.47;4.77;;;;;;;16.47;62.75;95952.91;5090707;28;20185;-69
2023/07/27 08:25:58;;;;;;;6.33;3.83;;;;;;;16.57;62.48;95945.13;5090803;28;20495;-71
2023/07/27 08:28:23;;;;;;;7.20;3.60;;;;;;;16.48;63.07;95934.22;5091016;28;20415;-70
2023/07/27 08:30:49;;;;;;;7.20;3.80;;;;;;;16.54;63.35;95940.06;5077540;28;20897;-73
2023/07/27 08:33:15;;;;;;;9.33;4.17;;;;;;;16.55;63.21;95937.28;5071519;28;20253;-70
2023/07/27 08:35:40;;;;;;;5.83;3.00;;;;;;;16.69;62.52;95933.59;5070936;28;20224;-70
2023/07/27 08:38:06;;;;;;;3.57;3.10;;;;;;;16.68;62.49;95924.81;5107602;28;20225;-67
2023/07/27 08:40:32;;;;;;;4.87;3.13;;;;;;;16.76;62.26;95926.03;5104115;28;20330;-70
2023/07/27 08:42:57;;;;;;;5.00;3.53;;;;;;;16.79;62.51;95934.59;5070123;28;20598;-69
2023/07/27 08:45:23;;;;;;;4.60;3.83;;;;;;;16.79;62.49;95924.00;5070607;28;20285;-71
2023/07/27 08:47:49;;;;;;;4.00;3.53;;;;;;;16.96;61.90;95916.56;5078150;28;20173;-70
2023/07/27 08:50:15;;;;;;;5.27;3.30;;;;;;;16.96;61.99;95912.13;5089441;28;20501;-69
2023/07/27 08:52:41;;;;;;;4.00;3.30;;;;;;;17.09;61.19;95917.31;5090615;28;20418;-69
2023/07/27 08:55:07;;;;;;;16.23;4.10;;;;;;;17.08;61.42;95916.47;5090699;28;20199;-70
2023/07/27 08:57:33;;;;;;;4.90;2.97;;;;;;;17.21;60.62;95913.69;5090622;28;20412;-68
2023/07/27 08:59:58;;;;;;;7.60;3.20;;;;;;;17.19;60.48;95920.94;5090700;28;20208;-68
2023/07/27 09:02:24;;;;;;;5.20;2.97;;;;;;;17.33;60.57;95917.19;5090616;28;20165;-69
2023/07/27 09:04:49;;;;;;;4.20;3.33;;;;;;;17.38;60.08;95912.38;5096880;28;20182;-70
2023/07/27 09:07:14;;;;;;;5.83;3.40;;;;;;;17.34;60.13;95911.78;5090486;28;20180;-68
2023/07/27 09:09:40;;;;;;;7.67;3.50;;;;;;;17.34;59.70;95908.28;5090030;28;20170;-70
2023/07/27 09:12:07;;;;;;;5.83;3.30;;;;;;;17.40;59.53;95915.75;5092084;28;20239;-69
2023/07/27 09:14:38;;;;;;;6.33;3.17;;;;;;;17.46;59.28;95914.44;5098846;28;20228;-69
2023/07/27 09:17:04;;;;;;;9.37;3.10;;;;;;;17.52;58.72;95903.31;5092227;28;20411;-70
2023/07/27 09:19:37;;;;;;;7.80;3.30;;;;;;;17.48;58.81;95913.34;5090611;28;20506;-69
2023/07/27 09:22:03;;;;;;;7.07;3.47;;;;;;;17.68;58.88;95908.25;5091187;28;20201;-70
2023/07/27 09:24:32;;;;;;;6.47;3.03;;;;;;;17.76;58.43;95901.38;5090648;28;20970;-69
2023/07/27 09:26:59;;;;;;;5.60;2.40;;;;;;;17.76;58.37;95908.47;5091071;28;20561;-69
2023/07/27 09:29:24;;;;;;;7.63;3.23;;;;;;;17.76;58.38;95901.38;5088553;28;20400;-69
2023/07/27 09:31:51;;;;;;;4.33;3.13;;;;;;;17.74;58.56;95898.00;5070745;28;20900;-69
2023/07/27 09:34:19;;;;;;;8.80;3.20;;;;;;;17.84;57.86;95894.63;5070200;28;20194;-69
2023/07/27 09:36:45;;;;;;;16.63;3.77;;;;;;;17.79;58.20;95894.97;5070101;28;20447;-70
2023/07/27 09:39:13;;;;;;;4.63;2.77;;;;;;;17.74;58.03;95889.16;5070049;28;20412;-69
2023/07/27 09:41:42;;;;;;;4.10;2.70;;;;;;;17.76;58.09;95892.53;5069833;28;20514;-67
2023/07/27 09:44:12;;;;;;;4.10;2.60;;;;;;;17.84;57.55;95881.38;5069411;28;20770;-69
2023/07/27 09:46:37;;;;;;;5.37;3.10;;;;;;;17.86;57.09;95877.63;5069732;28;20503;-68
2023/07/27 09:49:03;;;;;;;6.00;3.07;;;;;;;17.90;57.13;95870.22;5069119;28;20397;-69
2023/07/27 09:51:29;;;;;;;8.20;3.70;;;;;;;18.02;56.88;95874.53;5069690;28;20166;-67
2023/07/27 09:53:55;;;;;;;8.73;3.63;;;;;;;18.06;56.36;95868.00;5069292;28;20405;-69
2023/07/27 09:56:22;;;;;;;10.87;3.60;;;;;;;18.12;55.49;95874.63;5069374;28;20231;-68
2023/07/27 09:58:48;;;;;;;13.33;3.93;;;;;;;18.27;54.86;95873.34;5068803;28;20420;-68
2023/07/27 10:01:13;;;;;;;4.90;3.30;;;;;;;18.23;54.81;95871.09;5069414;28;20455;-67
2023/07/27 10:03:38;;;;;;;5.63;3.03;;;;;;;18.30;54.83;95859.81;5069436;28;20233;-69
2023/07/27 10:06:05;;;;;;;3.53;2.53;;;;;;;18.46;54.82;95858.53;5068971;28;20554;-68
2023/07/27 10:08:33;;;;;;;12.47;3.97;;;;;;;18.44;54.83;95852.50;5082861;28;20181;-69
2023/07/27 10:11:00;;;;;;;4.63;2.83;;;;;;;18.56;55.22;95838.19;5088123;28;20419;-70
2023/07/27 10:13:26;;;;;;;4.20;3.33;;;;;;;18.67;55.18;95848.75;5089433;28;20505;-68
2023/07/27 10:15:55;;;;;;;3.67;3.17;;;;;;;18.69;55.07;95843.31;5088958;28;20555;-68
2023/07/27 10:18:31;;;;;;;5.77;3.60;;;;;;;18.97;54.08;95853.28;5088852;28;20192;-69
2023/07/27 10:21:29;;;;;;;6.83;2.67;;;;;;;18.76;54.09;95850.66;5088562;28;20451;-70
2023/07/27 10:23:57;;;;;;;6.47;3.87;;;;;;;18.73;54.59;95852.69;5087890;28;20942;-70
2023/07/27 10:26:46;;;;;;;4.03;3.13;;;;;;;18.70;54.99;95852.97;5088391;28;20415;-69
2023/07/27 10:29:21;;;;;;;4.03;3.10;;;;;;;18.79;54.68;95842.41;5088080;28;20827;-69
2023/07/27 10:32:00;;;;;;;4.80;3.13;;;;;;;18.86;53.56;95849.88;5068296;28;20507;-70
2023/07/27 10:34:27;;;;;;;3.83;2.60;;;;;;;18.83;51.52;95843.00;5067960;28;20458;-69
2023/07/27 10:36:58;;;;;;;9.47;4.03;;;;;;;18.85;51.15;95851.69;5080274;28;20415;-71
2023/07/27 10:39:27;;;;;;;4.67;3.50;;;;;;;18.86;51.27;95849.88;5080029;28;20478;-70
2023/07/27 10:42:17;;;;;;;5.40;3.17;;;;;;;18.89;50.50;95860.22;5079593;28;20530;-69
2023/07/27 10:44:44;;;;;;;3.33;2.90;;;;;;;18.80;51.13;95849.44;5084879;28;20447;-70
2023/07/27 10:47:12;;;;;;;14.00;4.13;;;;;;;18.76;51.62;95848.00;5088485;28;20845;-68
2023/07/27 10:49:40;;;;;;;6.43;3.30;;;;;;;18.74;51.36;95846.41;5087858;28;20494;-69
2023/07/27 10:52:07;;;;;;;8.37;3.90;;;;;;;18.76;51.69;95844.47;5087784;28;20407;-69
2023/07/27 10:54:38;;;;;;;4.30;2.90;;;;;;;18.76;52.11;95852.44;5087817;28;20432;-70
2023/07/27 10:57:06;;;;;;;13.63;3.60;;;;;;;18.85;52.19;95842.84;5089307;28;20407;-70
2023/07/27 10:59:37;;;;;;;11.20;4.90;;;;;;;18.83;52.20;95843.84;5087320;28;20403;-69
2023/07/27 11:02:05;;;;;;;8.73;5.07;;;;;;;18.85;51.47;95834.88;5087520;28;20417;-69
2023/07/27 11:04:33;;;;;;;13.00;4.10;;;;;;;19.35;57.01;95837.63;5087667;28;20883;-69
2023/07/27 11:06:59;;;;;;;14.17;3.37;;;;;;;19.49;54.12;95831.94;5087190;28;20912;-69
2023/07/27 11:09:24;;;;;;;5.50;3.30;;;;;;;19.69;55.05;95832.00;5087043;28;20414;-71
2023/07/27 11:11:51;;;;;;;9.67;3.63;;;;;;;19.60;51.16;95820.31;5088001;28;20165;-70
2023/07/27 11:14:16;;;;;;;8.40;3.20;;;;;;;19.85;52.81;95819.84;5087941;28;20198;-70
2023/07/27 11:16:42;;;;;;;5.40;3.17;;;;;;;19.83;50.76;95818.28;5087722;28;20411;-69
2023/07/27 11:19:09;;;;;;;15.27;4.10;;;;;;;19.85;50.19;95808.34;5087896;28;20184;-71
2023/07/27 11:21:39;;;;;;;7.87;3.17;;;;;;;19.64;50.15;95803.94;5088176;28;20542;-69
2023/07/27 11:24:06;;;;;;;9.07;3.40;;;;;;;19.78;50.02;95812.53;5087927;28;20892;-68
2023/07/27 11:26:32;;;;;;;5.57;3.00;;;;;;;19.83;50.15;95807.63;5088192;28;21050;-68
2023/07/27 11:29:00;;;;;;;11.60;3.37;;;;;;;19.77;50.77;95795.72;5087740;28;20423;-70
2023/07/27 11:31:26;;;;;;;4.33;3.23;;;;;;;19.76;50.60;95798.53;5070102;28;20177;-70